createdAt,value
2023-03-21T00:01:56.264Z,99029.75
2023-03-21T00:04:33.163Z,99027.06
2023-03-21T00:07:06.787Z,99027.06
2023-03-21T00:09:35.509Z,99027.97
2023-03-21T00:12:07.528Z,99031.47
2023-03-21T00:14:38.012Z,99028.22
2023-03-21T00:17:10.936Z,99028.44
2023-03-21T00:19:41.386Z,99027.63
2023-03-21T00:22:10.348Z,99026.00
2023-03-21T00:24:39.378Z,99031.34
2023-03-21T00:27:34.598Z,99029.47
2023-03-21T00:29:57.361Z,99028.91
2023-03-21T00:32:27.812Z,99029.56
2023-03-21T00:35:16.515Z,99037.59
2023-03-21T00:37:46.850Z,99033.41
2023-03-21T00:40:26.563Z,99039.81
2023-03-21T00:42:57.951Z,99050.84
2023-03-21T00:45:28.236Z,99045.06
2023-03-21T00:47:58.542Z,99037.22
2023-03-21T00:50:27.629Z,99033.06
2023-03-21T00:52:56.896Z,99028.19
2023-03-21T00:55:27.195Z,99025.97
2023-03-21T00:58:01.824Z,99028.97
2023-03-21T01:00:33.146Z,99032.66
2023-03-21T01:03:17.494Z,99030.91
2023-03-21T01:06:05.687Z,99037.00
2023-03-21T01:08:51.060Z,99032.88
2023-03-21T01:11:25.167Z,99030.44
2023-03-21T01:14:14.649Z,99035.91
2023-03-21T01:16:43.924Z,99046.59
2023-03-21T01:19:25.525Z,99036.72
2023-03-21T01:21:56.742Z,99034.19
2023-03-21T01:24:26.668Z,99047.31
2023-03-21T01:26:55.448Z,99039.16
2023-03-21T01:29:24.390Z,99039.25
2023-03-21T01:31:53.277Z,99045.06
2023-03-21T01:34:23.406Z,99046.41
2023-03-21T01:36:52.519Z,99047.31
2023-03-21T01:39:23.213Z,99043.28
2023-03-21T01:41:52.713Z,99048.94
2023-03-21T01:44:27.304Z,99046.94
2023-03-21T01:47:11.077Z,99046.72
2023-03-21T01:49:46.995Z,99047.53
2023-03-21T01:52:37.840Z,99046.72
2023-03-21T01:55:16.215Z,99039.59
2023-03-21T01:58:05.816Z,99036.94
2023-03-21T02:00:56.950Z,99033.69
2023-03-21T02:03:38.459Z,99029.50
2023-03-21T02:06:41.477Z,99026.91
2023-03-21T02:09:24.718Z,99026.56
2023-03-21T02:11:56.762Z,99017.63
2023-03-21T02:14:33.623Z,99020.63
2023-03-21T02:17:19.891Z,99020.69
2023-03-21T02:20:51.150Z,99021.19
2023-03-21T02:24:02.310Z,99024.75
2023-03-21T02:27:07.776Z,99028.31
2023-03-21T02:30:49.181Z,99014.38
2023-03-21T02:34:42.484Z,99019.00
2023-03-21T02:37:37.663Z,99015.44
2023-03-21T02:40:16.732Z,99020.53
2023-03-21T02:43:05.632Z,99017.63
2023-03-21T02:45:46.878Z,99016.97
2023-03-21T02:48:31.153Z,99012.91
2023-03-21T02:51:07.710Z,99014.31
2023-03-21T02:53:45.019Z,99013.50
2023-03-21T02:56:14.280Z,99010.91
2023-03-21T02:58:49.786Z,99008.00
2023-03-21T03:01:18.612Z,99008.31
2023-03-21T03:03:50.424Z,99001.94
2023-03-21T03:06:27.930Z,99005.25
2023-03-21T03:09:25.552Z,98996.66
2023-03-21T03:12:10.720Z,99006.06
2023-03-21T03:15:02.973Z,99000.28
2023-03-21T03:17:52.896Z,98997.84
2023-03-21T03:20:37.446Z,98991.69
2023-03-21T03:23:19.793Z,98991.25
2023-03-21T03:25:58.026Z,98992.06
2023-03-21T03:28:34.392Z,98992.88
2023-03-21T03:31:09.692Z,98996.59
2023-03-21T03:33:59.322Z,98993.91
2023-03-21T03:36:39.370Z,98995.75
2023-03-21T03:39:18.013Z,99000.00
2023-03-21T03:42:12.482Z,99001.91
2023-03-21T03:44:47.568Z,99005.31
2023-03-21T03:47:32.731Z,99003.03
2023-03-21T03:50:13.389Z,98998.94
2023-03-21T03:52:56.107Z,99003.13
2023-03-21T03:55:34.502Z,99011.34
2023-03-21T03:58:21.735Z,99005.84
2023-03-21T04:00:52.325Z,99002.50
2023-03-21T04:03:21.476Z,99004.75
2023-03-21T04:05:50.831Z,99000.88
2023-03-21T04:08:20.140Z,99004.97
2023-03-21T04:10:54.467Z,99007.91
2023-03-21T04:13:25.945Z,99003.53
2023-03-21T04:16:05.292Z,99007.03
2023-03-21T04:18:34.169Z,99010.97
2023-03-21T04:21:03.667Z,99008.88
2023-03-21T04:23:33.302Z,99012.97
2023-03-21T04:26:02.018Z,99010.06
2023-03-21T04:28:39.885Z,99005.69
2023-03-21T04:31:28.688Z,99011.84
2023-03-21T04:34:09.967Z,99005.53
2023-03-21T04:36:44.725Z,99004.44
2023-03-21T04:39:14.078Z,99007.25
2023-03-21T04:41:46.829Z,99009.28
2023-03-21T04:44:19.040Z,99001.84
2023-03-21T04:46:48.563Z,99005.31
2023-03-21T04:49:18.564Z,99010.88
2023-03-21T04:51:47.388Z,99006.00
2023-03-21T04:54:21.111Z,99012.09
2023-03-21T04:56:52.086Z,99000.59
2023-03-21T04:59:22.292Z,99009.31
2023-03-21T05:01:52.011Z,99009.75
2023-03-21T05:04:22.843Z,99004.56
2023-03-21T05:06:54.248Z,99007.25
2023-03-21T05:09:23.328Z,99001.31
2023-03-21T05:11:55.066Z,99005.94
2023-03-21T05:14:28.578Z,99004.81
2023-03-21T05:16:57.953Z,99001.25
2023-03-21T05:19:35.213Z,99002.22
2023-03-21T05:22:09.261Z,98999.72
2023-03-21T05:24:42.075Z,99004.59
2023-03-21T05:27:34.323Z,98998.81
2023-03-21T05:30:10.763Z,99006.53
2023-03-21T05:32:39.806Z,99002.22
2023-03-21T05:35:12.498Z,99008.16
2023-03-21T05:37:43.137Z,99014.69
2023-03-21T05:40:13.867Z,99002.75
2023-03-21T05:42:47.182Z,99001.09
2023-03-21T05:45:24.732Z,98999.84
2023-03-21T05:47:53.854Z,99002.50
2023-03-21T05:50:28.161Z,99008.81
2023-03-21T05:53:13.937Z,99002.50
2023-03-21T05:55:48.888Z,99008.47
2023-03-21T05:58:40.709Z,99004.66
2023-03-21T06:01:12.789Z,99006.38
2023-03-21T06:03:46.449Z,99006.28
2023-03-21T06:06:19.922Z,99002.97
2023-03-21T06:09:06.882Z,99004.50
2023-03-21T06:11:38.990Z,99009.94
2023-03-21T06:14:27.029Z,99014.16
2023-03-21T06:17:16.866Z,99011.03
2023-03-21T06:19:58.438Z,99019.56
2023-03-21T06:22:32.228Z,99017.03
2023-03-21T06:25:02.804Z,99014.00
2023-03-21T06:27:33.622Z,99017.50
2023-03-21T06:30:02.524Z,99022.84
2023-03-21T06:32:39.255Z,99020.44
2023-03-21T06:35:19.946Z,99025.03
2023-03-21T06:37:49.557Z,99026.00
2023-03-21T06:40:26.886Z,99024.00
2023-03-21T06:43:27.851Z,99024.38
2023-03-21T06:45:56.638Z,99023.34
2023-03-21T06:48:28.031Z,99026.84
2023-03-21T06:50:57.652Z,99029.66
2023-03-21T06:53:30.228Z,99028.31
2023-03-21T06:56:17.732Z,99030.41
2023-03-21T06:58:47.763Z,99037.84
2023-03-21T07:01:31.713Z,99037.75
2023-03-21T07:04:09.174Z,99039.31
2023-03-21T07:06:38.410Z,99036.34
2023-03-21T07:09:07.999Z,99036.88
2023-03-21T07:11:38.637Z,99034.25
2023-03-21T07:14:10.293Z,99034.75
2023-03-21T07:16:40.191Z,99031.25
2023-03-21T07:19:10.667Z,99038.22
2023-03-21T07:21:39.417Z,99041.22
2023-03-21T07:24:08.957Z,99035.44
2023-03-21T07:26:37.772Z,99030.09
2023-03-21T07:29:07.658Z,99037.13
2023-03-21T07:31:36.840Z,99037.09
2023-03-21T07:34:06.011Z,99036.66
2023-03-21T07:36:37.010Z,99032.72
2023-03-21T07:39:06.409Z,99036.41
2023-03-21T07:41:35.369Z,99047.69
2023-03-21T07:44:15.697Z,99045.31
2023-03-21T07:46:44.441Z,99040.53
2023-03-21T07:49:13.226Z,99049.31
2023-03-21T07:51:43.707Z,99038.28
2023-03-21T07:54:13.529Z,99036.31
2023-03-21T07:56:42.585Z,99030.19
2023-03-21T07:59:11.306Z,99030.22
2023-03-21T08:01:40.207Z,99032.56
2023-03-21T08:04:09.010Z,99027.59
2023-03-21T08:06:37.797Z,99032.00
2023-03-21T08:09:07.974Z,99028.41
2023-03-21T08:11:36.766Z,99021.44
2023-03-21T08:14:05.512Z,99032.84
2023-03-21T08:16:34.283Z,99029.22
2023-03-21T08:19:03.101Z,99037.03
2023-03-21T08:21:31.846Z,99034.81
2023-03-21T08:24:00.527Z,99036.44
2023-03-21T08:26:32.524Z,99039.69
2023-03-21T08:29:01.349Z,99032.72
2023-03-21T08:31:30.056Z,99034.47
2023-03-21T08:33:58.944Z,99036.19
2023-03-21T08:36:27.671Z,99030.72
2023-03-21T08:38:57.250Z,99032.97
2023-03-21T08:41:26.473Z,99039.00
2023-03-21T08:43:56.838Z,99042.16
2023-03-21T08:46:25.770Z,99039.50
2023-03-21T08:48:57.521Z,99039.13
2023-03-21T08:51:26.258Z,99034.94
2023-03-21T08:53:54.994Z,99032.25
2023-03-21T08:56:23.656Z,99025.00
2023-03-21T08:58:52.366Z,99021.56
2023-03-21T09:01:22.409Z,99022.72
2023-03-21T09:03:51.135Z,99027.03
2023-03-21T09:06:19.831Z,99021.25
2023-03-21T09:08:48.473Z,99018.97
2023-03-21T09:11:17.222Z,99031.47
2023-03-21T09:13:46.209Z,99020.75
2023-03-21T09:16:14.995Z,99021.69
2023-03-21T09:18:49.633Z,99023.44
2023-03-21T09:21:20.454Z,99026.38
2023-03-21T09:23:52.811Z,99021.81
2023-03-21T09:26:21.782Z,99019.56
2023-03-21T09:28:51.308Z,99019.47
2023-03-21T09:31:22.999Z,99018.00
2023-03-21T09:33:56.001Z,99011.81
2023-03-21T09:36:27.296Z,99008.09
2023-03-21T09:38:57.061Z,98998.56
2023-03-21T09:41:52.942Z,98998.41
2023-03-21T09:44:41.001Z,99005.31
2023-03-21T09:47:22.284Z,99008.63
2023-03-21T09:50:13.153Z,98998.22
2023-03-21T09:52:49.772Z,99005.81
2023-03-21T09:55:22.505Z,99000.28
2023-03-21T09:58:04.470Z,99005.00
2023-03-21T10:00:42.070Z,99007.19
2023-03-21T10:03:24.552Z,98991.47
2023-03-21T10:05:58.743Z,98998.22
2023-03-21T10:08:36.530Z,98998.75
2023-03-21T10:11:17.011Z,98988.22
2023-03-21T10:13:52.414Z,98986.13
2023-03-21T10:16:29.228Z,98982.50
2023-03-21T10:18:59.559Z,98979.25
2023-03-21T10:21:58.453Z,98978.19
2023-03-21T10:24:25.071Z,98979.53
2023-03-21T10:26:55.989Z,98977.00
2023-03-21T10:29:31.477Z,98966.94
2023-03-21T10:32:01.697Z,98971.53
2023-03-21T10:34:39.257Z,98965.75
2023-03-21T10:37:16.893Z,98959.44
2023-03-21T10:39:50.304Z,98950.22
2023-03-21T10:42:24.881Z,98963.53
2023-03-21T10:44:57.444Z,98961.53
2023-03-21T10:47:29.423Z,98957.31
2023-03-21T10:50:08.883Z,98958.31
2023-03-21T10:52:46.365Z,98964.31
2023-03-21T10:55:26.435Z,98955.75
2023-03-21T10:58:00.656Z,98955.97
2023-03-21T11:00:36.989Z,98956.81
2023-03-21T11:03:07.172Z,98948.97
2023-03-21T11:05:40.907Z,98955.38
2023-03-21T11:08:16.487Z,98951.88
2023-03-21T11:10:56.468Z,98947.56
2023-03-21T11:13:28.990Z,98940.38
2023-03-21T11:16:08.054Z,98945.41
2023-03-21T11:18:43.546Z,98944.03
2023-03-21T11:21:15.616Z,98938.19
2023-03-21T11:23:49.649Z,98936.13
2023-03-21T11:26:24.372Z,98932.03
2023-03-21T11:28:54.074Z,98930.53
2023-03-21T11:31:25.060Z,98929.03
2023-03-21T11:33:57.148Z,98925.88
2023-03-21T11:36:35.228Z,98916.75
2023-03-21T11:39:27.736Z,98924.81
2023-03-21T11:41:56.626Z,98917.38
2023-03-21T11:44:33.662Z,98920.84
2023-03-21T11:47:03.490Z,98908.28
2023-03-21T11:49:32.810Z,98914.47
2023-03-21T11:52:24.714Z,98909.75
2023-03-21T11:55:20.305Z,98902.53
2023-03-21T11:58:14.364Z,98898.81
2023-03-21T12:00:54.836Z,98898.16
2023-03-21T12:04:09.828Z,98898.16
2023-03-21T12:06:44.644Z,98897.38
2023-03-21T12:09:37.710Z,98890.72
2023-03-21T12:12:38.399Z,98887.56
2023-03-21T12:15:19.518Z,98881.16
2023-03-21T12:18:01.454Z,98873.41
2023-03-21T12:20:45.751Z,98876.97
2023-03-21T12:23:53.412Z,98873.47
2023-03-21T12:26:28.381Z,98869.13
2023-03-21T12:29:20.944Z,98863.97
2023-03-21T12:32:11.502Z,98866.38
2023-03-21T12:35:28.931Z,98868.84
2023-03-21T12:38:41.278Z,98863.44
2023-03-21T12:41:25.633Z,98852.72
2023-03-21T12:44:03.627Z,98857.00
2023-03-21T12:46:42.589Z,98853.19
2023-03-21T12:49:19.851Z,98850.00
2023-03-21T12:51:53.124Z,98852.13
2023-03-21T12:54:32.899Z,98842.19
2023-03-21T12:57:10.375Z,98841.94
2023-03-21T12:59:48.258Z,98828.47
2023-03-21T13:02:26.684Z,98824.22
2023-03-21T13:05:06.429Z,98823.97
2023-03-21T13:07:43.778Z,98821.25
2023-03-21T13:10:21.017Z,98826.13
2023-03-21T13:13:17.388Z,98818.31
2023-03-21T13:16:14.159Z,98816.13
2023-03-21T13:19:06.711Z,98804.84
2023-03-21T13:21:52.261Z,98809.66
2023-03-21T13:24:33.491Z,98798.88
2023-03-21T13:27:07.555Z,98799.66
2023-03-21T13:29:47.550Z,98798.25
2023-03-21T13:32:29.658Z,98796.94
2023-03-21T13:35:01.552Z,98790.47
2023-03-21T13:37:43.290Z,98786.97
2023-03-21T13:40:26.179Z,98789.44
2023-03-21T13:42:59.288Z,98785.94
2023-03-21T13:45:33.327Z,98780.28
2023-03-21T13:48:07.557Z,98778.41
2023-03-21T13:50:52.962Z,98780.53
2023-03-21T13:53:32.676Z,98782.19
2023-03-21T13:56:24.893Z,98776.50
2023-03-21T13:59:05.398Z,98777.34
2023-03-21T14:02:02.009Z,98772.75
2023-03-21T14:04:42.096Z,98782.72
2023-03-21T14:07:24.683Z,98771.94
2023-03-21T14:09:57.405Z,98760.59
2023-03-21T14:12:29.881Z,98757.88
2023-03-21T14:15:16.269Z,98758.44
2023-03-21T14:17:54.446Z,98744.16
2023-03-21T14:20:28.992Z,98751.41
2023-03-21T14:22:59.001Z,98743.31
2023-03-21T14:25:41.075Z,98743.59
2023-03-21T14:28:19.394Z,98740.63
2023-03-21T14:30:55.172Z,98734.41
2023-03-21T14:33:31.328Z,98727.13
2023-03-21T14:36:08.984Z,98726.03
2023-03-21T14:38:40.887Z,98726.59
2023-03-21T14:41:24.502Z,98724.44
2023-03-21T14:44:30.278Z,98721.16
2023-03-21T14:47:04.762Z,98726.03
2023-03-21T14:49:36.142Z,98721.16
2023-03-21T14:52:12.532Z,98723.88
2023-03-21T14:54:42.744Z,98712.53
2023-03-21T14:57:17.153Z,98719.03
2023-03-21T14:59:49.957Z,98710.38
2023-03-21T15:02:23.945Z,98703.88
2023-03-21T15:04:57.625Z,98711.44
2023-03-21T15:07:30.629Z,98697.97
2023-03-21T15:10:05.256Z,98699.63
2023-03-21T15:12:35.050Z,98700.94
2023-03-21T15:15:05.882Z,98690.97
2023-03-21T15:17:34.906Z,98694.22
2023-03-21T15:20:05.887Z,98697.44
2023-03-21T15:22:40.887Z,98700.69
2023-03-21T15:25:18.505Z,98695.31
2023-03-21T15:27:47.521Z,98696.91
2023-03-21T15:30:28.015Z,98691.81
2023-03-21T15:32:58.053Z,98693.13
2023-03-21T15:35:34.685Z,98692.91
2023-03-21T15:38:06.738Z,98691.53
2023-03-21T15:40:37.913Z,98684.00
2023-03-21T15:43:14.512Z,98690.47
2023-03-21T15:45:50.524Z,98685.88
2023-03-21T15:48:26.749Z,98686.69
2023-03-21T15:51:03.862Z,98679.94
2023-03-21T15:53:38.537Z,98676.44
2023-03-21T15:56:16.127Z,98678.03
2023-03-21T15:58:49.093Z,98674.28
2023-03-21T16:01:22.118Z,98678.59
2023-03-21T16:03:58.615Z,98675.09
2023-03-21T16:06:34.185Z,98674.28
2023-03-21T16:09:22.160Z,98677.50
2023-03-21T16:11:54.131Z,98669.41
2023-03-21T16:14:24.814Z,98669.97
2023-03-21T16:16:53.917Z,98674.84
2023-03-21T16:19:23.373Z,98678.06
2023-03-21T16:21:53.886Z,98680.78
2023-03-21T16:24:24.150Z,98684.28
2023-03-21T16:26:55.166Z,98682.94
2023-03-21T16:29:23.869Z,98683.72
2023-03-21T16:31:53.310Z,98677.53
2023-03-21T16:34:22.140Z,98669.44
2023-03-21T16:36:50.952Z,98675.34
2023-03-21T16:39:22.531Z,98678.81
2023-03-21T16:41:52.647Z,98675.31
2023-03-21T16:44:22.478Z,98683.88
2023-03-21T16:46:51.324Z,98684.97
2023-03-21T16:49:23.965Z,98686.56
2023-03-21T16:51:53.757Z,98684.97
2023-03-21T16:54:23.099Z,98688.19
2023-03-21T16:56:56.486Z,98686.03
2023-03-21T16:59:25.373Z,98694.06
2023-03-21T17:01:54.046Z,98686.53
2023-03-21T17:04:24.911Z,98685.97
2023-03-21T17:06:55.544Z,98687.03
2023-03-21T17:09:28.058Z,98687.03
2023-03-21T17:11:59.437Z,98689.97
2023-03-21T17:14:32.434Z,98691.56
2023-03-21T17:17:01.320Z,98683.44
2023-03-21T17:19:31.084Z,98682.94
2023-03-21T17:21:59.883Z,98688.59
2023-03-21T17:24:29.872Z,98681.28
2023-03-21T17:27:02.954Z,98682.84
2023-03-21T17:29:33.428Z,98679.59
2023-03-21T17:32:08.213Z,98672.28
2023-03-21T17:34:37.025Z,98681.97
2023-03-21T17:37:10.965Z,98681.16
2023-03-21T17:39:43.042Z,98681.41
2023-03-21T17:42:20.634Z,98682.44
2023-03-21T17:44:51.124Z,98681.38
2023-03-21T17:47:25.513Z,98678.09
2023-03-21T17:49:54.479Z,98680.41
2023-03-21T17:52:24.724Z,98682.38
2023-03-21T17:54:53.818Z,98681.56
2023-03-21T17:57:25.716Z,98671.63
2023-03-21T17:59:57.660Z,98674.16
2023-03-21T18:02:28.111Z,98669.53
2023-03-21T18:04:59.432Z,98678.88
2023-03-21T18:08:05.941Z,98672.41
2023-03-21T18:10:24.599Z,98671.25
2023-03-21T18:12:57.128Z,98664.78
2023-03-21T18:15:30.319Z,98671.53
2023-03-21T18:18:04.741Z,98665.91
2023-03-21T18:23:23.525Z,98677.00
2023-03-21T18:25:55.876Z,98674.88
2023-03-21T18:28:26.963Z,98681.22
2023-03-21T18:31:17.952Z,98675.75
2023-03-21T18:33:45.470Z,98685.50
2023-03-21T18:36:24.052Z,98686.72
2023-03-21T18:38:55.161Z,98680.00
2023-03-21T18:41:23.961Z,98677.56
2023-03-21T18:44:11.794Z,98677.50
2023-03-21T18:46:47.303Z,98683.88
2023-03-21T18:52:09.106Z,98685.56
2023-03-21T18:54:41.399Z,98677.59
2023-03-21T18:57:35.021Z,98692.06
2023-03-21T19:00:02.074Z,98685.56
2023-03-21T19:02:31.108Z,98685.28
2023-03-21T19:04:59.918Z,98690.31
2023-03-21T19:07:28.811Z,98689.94
2023-03-21T19:10:16.324Z,98694.75
2023-03-21T19:12:46.284Z,98692.94
2023-03-21T19:15:19.673Z,98695.75
2023-03-21T19:29:12.231Z,98691.66
2023-03-21T19:31:58.938Z,98698.00
2023-03-21T19:34:53.488Z,98700.50
2023-03-21T19:37:27.325Z,98699.50
2023-03-21T19:39:56.729Z,98694.06
2023-03-21T19:45:29.328Z,98686.59
2023-03-21T19:48:19.007Z,98689.53
2023-03-21T19:51:25.751Z,98693.09
2023-03-21T19:53:49.886Z,98689.69
2023-03-21T19:56:27.797Z,98692.19
2023-03-21T20:02:08.886Z,98684.81
2023-03-21T20:04:59.601Z,98685.56
2023-03-21T20:07:33.926Z,98695.13
2023-03-21T20:10:05.735Z,98698.69
2023-03-21T20:12:36.717Z,98692.78
2023-03-21T20:15:16.964Z,98684.97
2023-03-21T20:17:52.179Z,98686.84
2023-03-21T20:20:34.525Z,98686.84
2023-03-21T20:23:08.993Z,98689.34
2023-03-21T20:25:43.975Z,98693.00
2023-03-21T20:28:24.633Z,98695.69
2023-03-21T20:30:57.033Z,98693.00
2023-03-21T20:33:34.134Z,98693.81
2023-03-21T20:36:38.692Z,98693.50
2023-03-21T20:38:58.406Z,98690.25
2023-03-21T20:41:27.885Z,98690.91
2023-03-21T20:44:39.492Z,98691.56
2023-03-21T20:46:49.729Z,98695.69
2023-03-21T20:49:19.803Z,98696.81
2023-03-21T20:54:39.304Z,98697.25
2023-03-21T20:57:07.997Z,98702.09
2023-03-21T20:59:36.778Z,98696.75
2023-03-21T21:02:06.216Z,98694.72
2023-03-21T21:04:52.493Z,98693.00
2023-03-21T21:07:27.914Z,98691.22
2023-03-21T21:09:57.150Z,98698.16
2023-03-21T21:12:27.623Z,98704.63
2023-03-21T21:14:56.808Z,98698.88
2023-03-21T21:18:04.011Z,98698.06
2023-03-21T21:20:17.735Z,98695.94
2023-03-21T21:22:59.694Z,98700.78
2023-03-21T21:25:30.700Z,98699.34
2023-03-21T21:28:01.697Z,98701.59
2023-03-21T21:30:31.981Z,98707.56
2023-03-21T21:33:00.903Z,98702.44
2023-03-21T21:35:29.751Z,98703.16
2023-03-21T21:37:59.931Z,98708.03
2023-03-21T21:40:29.741Z,98708.75
2023-03-21T21:43:03.477Z,98713.38
2023-03-21T21:45:32.468Z,98712.91
2023-03-21T21:48:01.343Z,98714.53
2023-03-21T21:50:30.056Z,98713.22
2023-03-21T21:53:03.892Z,98720.28
2023-03-21T21:55:35.036Z,98714.09
2023-03-21T21:58:04.875Z,98718.41
2023-03-21T22:00:34.544Z,98723.59
2023-03-21T22:03:03.673Z,98722.38
2023-03-21T22:05:32.724Z,98723.50
2023-03-21T22:08:05.411Z,98720.88
2023-03-21T22:10:34.707Z,98724.38
2023-03-21T22:13:03.466Z,98726.06
2023-03-21T22:15:33.344Z,98722.56
2023-03-21T22:18:02.098Z,98726.41
2023-03-21T22:20:30.836Z,98721.50
2023-03-21T22:23:01.062Z,98718.81
2023-03-21T22:25:33.120Z,98720.44
2023-03-21T22:28:02.291Z,98714.84
2023-03-21T22:30:31.643Z,98727.38
2023-03-21T22:33:09.329Z,98714.53
2023-03-21T22:35:38.874Z,98718.28
2023-03-21T22:38:07.711Z,98719.91
2023-03-21T22:40:38.262Z,98722.31
2023-03-21T22:43:08.851Z,98716.16
2023-03-21T22:45:37.610Z,98712.91
2023-03-21T22:48:06.941Z,98715.53
2023-03-21T22:50:35.688Z,98717.13
2023-03-21T22:53:06.452Z,98713.38
2023-03-21T22:55:36.655Z,98711.78
2023-03-21T22:58:05.579Z,98714.47
2023-03-21T23:00:34.681Z,98712.22
2023-03-21T23:03:03.396Z,98720.00
2023-03-21T23:05:32.221Z,98708.97
2023-03-21T23:08:00.991Z,98707.56
2023-03-21T23:10:29.717Z,98703.59
2023-03-21T23:12:59.908Z,98693.38
2023-03-21T23:15:28.649Z,98693.63
2023-03-21T23:17:57.342Z,98698.97
2023-03-21T23:20:26.036Z,98699.06
2023-03-21T23:22:54.653Z,98697.53
2023-03-21T23:25:24.941Z,98693.47
2023-03-21T23:27:53.609Z,98689.50
2023-03-21T23:30:24.360Z,98686.81
2023-03-21T23:32:53.309Z,98687.78
2023-03-21T23:35:21.959Z,98694.31
2023-03-21T23:37:52.663Z,98686.66
2023-03-21T23:40:22.308Z,98688.19
2023-03-21T23:42:52.172Z,98688.06
2023-03-21T23:45:22.205Z,98687.56
2023-03-21T23:47:50.967Z,98695.53
2023-03-21T23:50:19.849Z,98698.38
2023-03-21T23:52:48.863Z,98694.78
2023-03-21T23:55:17.670Z,98694.31
2023-03-21T23:57:46.473Z,98698.38
